Aquinnah, MA

12:05 AM EDT on August 23, 2014 (GMT -0400)
High Mark | Change Station
CLOSE
Current Station
Personal Weather Station
Location: Chilmark, MA
Elevation: 186 ft
Nearby Weather Stations

Elev 186 ft 41.35 °N, 70.74 °W | Updated 25 seconds ago

Overcast
Overcast
64.5 °F
Feels Like 64.5 °F
N
0.0
Wind Variable Wind from ESE
Gusts 0.0 mph

Today
High -- | Low -- °F
--% Chance of Precip.
Yesterday
High -- | Low -- °F
Precip. -- in
6:00 AM 7:30 PM
Waning Crescent, 5% visible
Pressure 30.06 in
Visibility 10.0 miles
Clouds Mostly Cloudy 1500 ft
Mostly Cloudy 2600 ft
Overcast 3700 ft
Dew Point 62 °F
Humidity 92%
Rainfall 0.00 in
Snow Depth Not available.
UV 0.0 out of 12
Pollen 6.00 out of 12
Air Quality Not available.
Flu Activity Not available.
METAR KMVY 230353Z 07008KT 10SM BKN015 BKN026 OVC037 19/17 A3006 RMK AO2 SLP178 T01940167

More Conditions Fewer Conditions

Pressure 30.06 in
Visibility 10.0 miles
Clouds Mostly Cloudy 1500 ft
Mostly Cloudy 2600 ft
Overcast 3700 ft
Dew Point 62 °F
Humidity 92%
Rainfall 0.00 in
Snow Depth Not available.
UV 0.0 out of 12
Pollen 6.00 out of 12
Air Quality Not available.
Flu Activity Not available.
METAR KMVY 230353Z 07008KT 10SM BKN015 BKN026 OVC037 19/17 A3006 RMK AO2 SLP178 T01940167

More Conditions Fewer Conditions

10-Day Weather Forecast

Almanac

Astronomy

Aug. 23, 2014 Rise Set
Actual Time 6:00 AM EDT 7:30 PM EDT
Civil Twilight 5:31 AM EDT 7:59 PM EDT
Nautical Twilight 4:56 AM EDT 8:34 PM EDT
Astronomical Twilight 4:18 AM EDT 9:11 PM EDT
Moon 4:13 AM EDT 6:13 PM EDT
Length of Visible Light 14h 28m
Length of Day
13h 30m
Tomorrow will be 2m 33s shorter.
Waning Crescent, 5% of the Moon is Illuminated
Today
Waning Crescent
Aug 25
New
Sep 2
First Quarter
Sep 8
Full
Sep 15
Last Quarter

Yesterday's Extremes

State Highs State Lows

Community

WunderPhotos

Upload Photos

1,746,351 photos uploaded!

WunderBlogs® & News

Nearby

Air Quality

  Air Quality AQ Index Pollutant
Yesterday Good
OZONE
Friday Good
PM2.5
Friday Good
OZONE
Saturday Good
PM2.5
Saturday Good
OZONE

Snow Depth

Station Depth Elevation
No new snow has been reported.

Earthquake Activity

City Distance Mag. Time & Date
No recent earthquake activity has been reported nearby.
Minimum magnitude displayed is 2.5.

Coastal Water Temperatures

Place Temperature
Nantucket Island, MA 72.0 °F
Woods Hole, MA 69.1 °F
Fall River, MA 73.0 °F

Nearby Weather Stations